createdAt,value
2019-03-15T00:02:19.878Z,77.37
2019-03-15T00:04:51.159Z,77.77
2019-03-15T00:07:22.462Z,77.38
2019-03-15T00:09:53.712Z,77.47
2019-03-15T00:12:25.026Z,77.41
2019-03-15T00:14:56.415Z,77.64
2019-03-15T00:17:27.712Z,78.16
2019-03-15T00:19:59.272Z,77.98
2019-03-15T00:22:30.639Z,77.89
2019-03-15T00:25:01.960Z,77.66
2019-03-15T00:27:33.265Z,78.35
2019-03-15T00:30:06.202Z,78.95
2019-03-15T00:32:37.521Z,78.42
2019-03-15T00:35:09.682Z,78.05
2019-03-15T00:37:41.042Z,77.76
2019-03-15T00:40:14.722Z,78.04
2019-03-15T00:42:46.006Z,78.25
2019-03-15T00:45:17.316Z,77.83
2019-03-15T00:47:48.692Z,78.61
2019-03-15T00:50:19.994Z,77.98
2019-03-15T00:52:51.282Z,78.18
2019-03-15T00:55:22.571Z,78.27
2019-03-15T00:57:53.833Z,77.58
2019-03-15T01:00:25.237Z,77.98
2019-03-15T01:02:56.522Z,77.77
2019-03-15T01:05:27.873Z,77.67
2019-03-15T01:07:59.219Z,77.84
2019-03-15T01:10:30.568Z,78.23
2019-03-15T01:13:01.948Z,78.00
2019-03-15T01:15:33.270Z,78.24
2019-03-15T01:18:04.581Z,78.33
2019-03-15T01:20:35.850Z,78.00
2019-03-15T01:23:07.224Z,77.88
2019-03-15T01:25:38.505Z,78.22
2019-03-15T01:28:10.438Z,77.96
2019-03-15T01:30:41.760Z,78.04
2019-03-15T01:33:13.054Z,77.80
2019-03-15T01:35:44.340Z,78.32
2019-03-15T01:38:15.651Z,77.91
2019-03-15T01:40:48.806Z,77.62
2019-03-15T01:43:19.889Z,77.03
2019-03-15T01:45:51.202Z,77.78
2019-03-15T01:48:22.484Z,77.73
2019-03-15T01:50:53.815Z,78.14
2019-03-15T01:53:25.068Z,77.67
2019-03-15T01:55:56.350Z,78.28
2019-03-15T01:58:27.709Z,78.64
2019-03-15T02:00:59.001Z,78.05
2019-03-15T02:03:30.309Z,78.71
2019-03-15T02:06:01.633Z,78.44
2019-03-15T02:08:32.929Z,78.40
2019-03-15T02:11:04.284Z,78.63
2019-03-15T02:13:35.574Z,78.22
2019-03-15T02:16:06.905Z,78.83
2019-03-15T02:18:38.197Z,78.74
2019-03-15T02:21:09.507Z,78.40
2019-03-15T02:23:40.818Z,78.40
2019-03-15T02:26:12.120Z,78.54
2019-03-15T02:28:43.383Z,78.57
2019-03-15T02:31:14.642Z,78.77
2019-03-15T02:33:45.940Z,78.60
2019-03-15T02:36:17.242Z,78.32
2019-03-15T02:38:48.490Z,77.62
2019-03-15T02:41:19.823Z,77.83
2019-03-15T02:43:51.203Z,78.36
2019-03-15T02:46:22.477Z,77.90
2019-03-15T02:48:53.808Z,78.33
2019-03-15T02:51:25.170Z,78.37
2019-03-15T02:53:56.451Z,78.21
2019-03-15T02:56:27.771Z,78.29
2019-03-15T02:58:59.070Z,78.54
2019-03-15T03:01:30.393Z,78.09
2019-03-15T03:04:01.669Z,78.45
2019-03-15T03:06:32.914Z,78.79
2019-03-15T03:09:05.618Z,78.86
2019-03-15T03:11:36.888Z,78.95
2019-03-15T03:14:08.181Z,79.07
2019-03-15T03:16:39.464Z,78.94
2019-03-15T03:19:10.731Z,79.20
2019-03-15T03:21:42.311Z,79.31
2019-03-15T03:24:13.794Z,79.41
2019-03-15T03:26:45.115Z,79.55
2019-03-15T03:29:16.431Z,79.61
2019-03-15T03:31:47.787Z,79.05
2019-03-15T03:34:19.118Z,78.96
2019-03-15T03:36:50.391Z,78.25
2019-03-15T03:39:21.703Z,77.11
2019-03-15T03:41:52.955Z,77.51
2019-03-15T03:44:24.220Z,77.38
2019-03-15T03:46:55.511Z,77.62
2019-03-15T03:49:27.419Z,78.16
2019-03-15T03:51:58.832Z,77.93
2019-03-15T03:54:30.518Z,77.44
2019-03-15T03:57:01.987Z,77.70
2019-03-15T03:59:33.270Z,77.50
2019-03-15T04:02:04.669Z,77.57
2019-03-15T04:04:36.010Z,78.04
2019-03-15T04:07:07.269Z,77.49
2019-03-15T04:09:38.602Z,78.12
2019-03-15T04:12:09.847Z,77.94
2019-03-15T04:14:41.142Z,77.89
2019-03-15T04:17:12.461Z,78.35
2019-03-15T04:19:43.764Z,78.79
2019-03-15T04:22:16.988Z,78.73
2019-03-15T04:24:48.316Z,78.99
2019-03-15T04:27:19.651Z,79.06
2019-03-15T04:29:50.990Z,79.45
2019-03-15T04:32:22.319Z,79.58
2019-03-15T04:34:53.561Z,79.28
2019-03-15T04:37:24.893Z,79.79
2019-03-15T04:39:56.164Z,79.19
2019-03-15T04:42:27.450Z,79.10
2019-03-15T04:44:58.730Z,79.37
2019-03-15T04:47:30.027Z,79.68
2019-03-15T04:50:01.308Z,78.77
2019-03-15T04:52:32.564Z,79.07
2019-03-15T04:55:03.914Z,78.82
2019-03-15T04:57:35.238Z,78.77
2019-03-15T05:00:07.930Z,79.30
2019-03-15T05:02:39.236Z,79.61
2019-03-15T05:05:10.636Z,79.46
2019-03-15T05:07:41.865Z,79.47
2019-03-15T05:10:13.146Z,79.15
2019-03-15T05:12:44.379Z,79.87
2019-03-15T05:15:15.699Z,79.76
2019-03-15T05:17:46.985Z,79.69
2019-03-15T05:20:20.968Z,79.84
2019-03-15T05:22:51.284Z,79.87
2019-03-15T05:25:22.558Z,79.01
2019-03-15T05:27:53.857Z,78.77
2019-03-15T05:30:25.122Z,78.86
2019-03-15T05:32:56.409Z,78.86
2019-03-15T05:35:27.695Z,79.14
2019-03-15T05:38:02.051Z,79.12
2019-03-15T05:40:33.369Z,79.24
2019-03-15T05:43:04.723Z,78.86
2019-03-15T05:45:36.075Z,78.81
2019-03-15T05:48:07.374Z,78.81
2019-03-15T05:50:40.832Z,79.21
2019-03-15T05:53:11.688Z,79.65
2019-03-15T05:55:42.927Z,80.04
2019-03-15T05:58:14.253Z,80.18
2019-03-15T06:00:45.497Z,80.80
2019-03-15T06:03:16.859Z,80.91
2019-03-15T06:05:48.237Z,81.67
2019-03-15T06:08:19.577Z,81.78
2019-03-15T06:10:50.854Z,82.22
2019-03-15T06:13:22.378Z,82.28
2019-03-15T06:15:53.685Z,82.59
2019-03-15T06:18:24.975Z,82.86
2019-03-15T06:20:56.279Z,83.22
2019-03-15T06:23:27.633Z,83.43
2019-03-15T06:25:58.925Z,83.84
2019-03-15T06:28:30.215Z,83.88
2019-03-15T06:31:01.588Z,84.47
2019-03-15T06:33:32.882Z,85.05
2019-03-15T06:36:04.174Z,85.99
2019-03-15T06:38:35.420Z,86.35
2019-03-15T06:41:06.681Z,86.97
2019-03-15T06:43:38.026Z,86.72
2019-03-15T06:46:09.271Z,87.41
2019-03-15T06:48:40.605Z,87.79
2019-03-15T06:51:11.957Z,88.58
2019-03-15T06:53:43.221Z,89.12
2019-03-15T06:56:17.518Z,89.56
2019-03-15T06:58:48.781Z,90.15
2019-03-15T07:01:20.061Z,90.83
2019-03-15T07:03:51.402Z,91.63
2019-03-15T07:06:22.686Z,93.03
2019-03-15T07:08:54.026Z,94.01
2019-03-15T07:11:25.374Z,94.54
2019-03-15T07:13:56.707Z,95.29
2019-03-15T07:16:28.111Z,95.96
2019-03-15T07:18:59.390Z,95.95
2019-03-15T07:21:30.719Z,96.68
2019-03-15T07:24:04.084Z,97.28
2019-03-15T07:26:35.404Z,97.88
2019-03-15T07:29:06.794Z,98.48
2019-03-15T07:31:38.088Z,98.54
2019-03-15T07:34:09.356Z,99.27
2019-03-15T07:36:40.724Z,99.58
2019-03-15T07:39:12.935Z,99.96
2019-03-15T07:41:44.437Z,100.00
2019-03-15T07:44:15.709Z,100.00
2019-03-15T07:46:47.054Z,100.00
2019-03-15T07:49:18.401Z,100.00
2019-03-15T07:51:49.725Z,100.00
2019-03-15T07:54:21.105Z,100.00
2019-03-15T07:56:52.405Z,100.00
2019-03-15T07:59:23.712Z,100.00
2019-03-15T08:01:55.054Z,100.00
2019-03-15T08:04:26.408Z,100.00
2019-03-15T08:06:57.725Z,100.00
2019-03-15T08:09:29.056Z,100.00
2019-03-15T08:12:00.378Z,100.00
2019-03-15T08:14:31.678Z,100.00
2019-03-15T08:17:03.022Z,100.00
2019-03-15T08:19:34.344Z,100.00
2019-03-15T08:22:05.744Z,100.00
2019-03-15T08:24:37.053Z,100.00
2019-03-15T08:27:08.439Z,100.00
2019-03-15T08:29:39.865Z,100.00
2019-03-15T08:32:11.160Z,100.00
2019-03-15T08:34:42.591Z,100.00
2019-03-15T08:37:14.113Z,100.00
2019-03-15T08:39:45.535Z,100.00
2019-03-15T08:42:16.887Z,100.00
2019-03-15T08:44:50.628Z,100.00
2019-03-15T08:47:22.185Z,100.00
2019-03-15T08:49:53.506Z,100.00
2019-03-15T08:52:24.833Z,100.00
2019-03-15T08:55:05.039Z,100.00
2019-03-15T08:57:29.219Z,100.00
2019-03-15T09:00:00.480Z,100.00
2019-03-15T09:02:31.857Z,100.00
2019-03-15T09:05:03.231Z,100.00
2019-03-15T09:07:34.587Z,100.00
2019-03-15T09:10:21.882Z,100.00
2019-03-15T09:12:42.720Z,100.00
2019-03-15T09:15:20.038Z,100.00
2019-03-15T09:17:51.844Z,100.00
2019-03-15T09:20:29.623Z,100.00
2019-03-15T09:22:57.105Z,100.00
2019-03-15T09:25:31.102Z,100.00
2019-03-15T09:28:02.431Z,100.00
2019-03-15T09:30:33.808Z,100.00
2019-03-15T09:33:08.534Z,100.00
2019-03-15T09:35:40.247Z,100.00
2019-03-15T09:38:14.240Z,100.00
2019-03-15T09:40:46.683Z,100.00
2019-03-15T09:43:23.482Z,100.00
2019-03-15T09:45:55.733Z,100.00
2019-03-15T09:48:27.200Z,100.00
2019-03-15T09:51:00.841Z,100.00
2019-03-15T09:53:32.678Z,100.00
2019-03-15T09:56:04.489Z,100.00
2019-03-15T09:58:35.886Z,100.00
2019-03-15T10:01:07.830Z,100.00
2019-03-15T10:03:40.327Z,100.00
2019-03-15T10:06:15.797Z,100.00
2019-03-15T10:08:44.797Z,100.00
2019-03-15T10:11:17.387Z,100.00
2019-03-15T10:13:49.113Z,100.00
2019-03-15T10:16:23.499Z,100.00
2019-03-15T10:18:54.841Z,100.00
2019-03-15T10:21:28.727Z,100.00
2019-03-15T10:24:00.134Z,100.00
2019-03-15T10:26:31.667Z,100.00
2019-03-15T10:29:14.518Z,100.00
2019-03-15T10:31:36.117Z,100.00
2019-03-15T10:34:07.382Z,100.00
2019-03-15T10:36:38.670Z,100.00
2019-03-15T10:39:09.970Z,100.00
2019-03-15T10:41:41.368Z,100.00
2019-03-15T10:44:12.654Z,100.00
2019-03-15T10:46:44.044Z,100.00
2019-03-15T10:49:15.460Z,100.00
2019-03-15T10:51:47.874Z,100.00
2019-03-15T10:54:19.161Z,100.00
2019-03-15T10:56:50.499Z,100.00
2019-03-15T10:59:21.832Z,100.00
2019-03-15T11:01:53.204Z,100.00
2019-03-15T11:04:24.711Z,100.00
2019-03-15T11:06:56.109Z,100.00
2019-03-15T11:09:27.488Z,100.00
2019-03-15T11:11:58.893Z,100.00
2019-03-15T11:14:30.308Z,100.00
2019-03-15T11:17:02.051Z,100.00
2019-03-15T11:19:33.425Z,100.00
2019-03-15T11:22:04.751Z,100.00
2019-03-15T11:24:36.115Z,100.00
2019-03-15T11:27:07.510Z,100.00
2019-03-15T11:29:38.882Z,100.00
2019-03-15T11:32:10.332Z,100.00
2019-03-15T11:34:41.718Z,100.00
2019-03-15T11:37:13.125Z,100.00
2019-03-15T11:39:44.444Z,100.00
2019-03-15T11:42:15.862Z,100.00
2019-03-15T11:44:47.254Z,100.00
2019-03-15T11:47:18.685Z,100.00
2019-03-15T11:49:50.006Z,100.00
2019-03-15T11:52:21.412Z,100.00
2019-03-15T11:54:52.837Z,100.00
2019-03-15T11:57:24.182Z,100.00
2019-03-15T11:59:55.640Z,100.00
2019-03-15T12:02:27.103Z,99.62
2019-03-15T12:04:58.471Z,99.99
2019-03-15T12:07:29.891Z,99.47
2019-03-15T12:10:01.243Z,99.41
2019-03-15T12:12:32.963Z,98.82
2019-03-15T12:15:04.433Z,99.38
2019-03-15T12:17:35.801Z,99.98
2019-03-15T12:20:07.662Z,100.00
2019-03-15T12:22:39.101Z,100.00
2019-03-15T12:25:10.649Z,100.00
2019-03-15T12:27:42.030Z,100.00
2019-03-15T12:30:13.449Z,100.00
2019-03-15T12:32:44.843Z,100.00
2019-03-15T12:35:16.243Z,99.64
2019-03-15T12:37:47.679Z,99.23
2019-03-15T12:40:19.122Z,98.21
2019-03-15T12:42:50.463Z,98.12
2019-03-15T12:45:21.896Z,97.82
2019-03-15T12:47:53.211Z,98.24
2019-03-15T12:50:24.655Z,98.49
2019-03-15T12:52:56.088Z,99.26
2019-03-15T12:55:30.302Z,98.76
2019-03-15T12:58:02.512Z,98.56
2019-03-15T13:00:33.772Z,96.96
2019-03-15T13:03:05.775Z,95.61
2019-03-15T13:05:37.147Z,95.53
2019-03-15T13:08:09.571Z,94.88
2019-03-15T13:10:45.373Z,94.50
2019-03-15T13:13:16.783Z,92.04
2019-03-15T13:15:50.473Z,90.13
2019-03-15T13:18:21.775Z,90.97
2019-03-15T13:20:56.472Z,89.66
2019-03-15T13:23:27.768Z,90.10
2019-03-15T13:25:59.817Z,88.79
2019-03-15T13:28:32.621Z,88.23
2019-03-15T13:31:06.715Z,88.45
2019-03-15T13:33:38.495Z,88.02
2019-03-15T13:36:10.660Z,87.44
2019-03-15T13:38:42.074Z,86.96
2019-03-15T13:41:13.380Z,86.38
2019-03-15T13:43:44.856Z,87.42
2019-03-15T13:46:16.251Z,87.13
2019-03-15T13:48:48.032Z,86.83
2019-03-15T13:51:22.576Z,86.48
2019-03-15T13:53:52.452Z,85.41
2019-03-15T13:56:24.040Z,85.53
2019-03-15T13:58:57.603Z,86.05
2019-03-15T14:01:28.383Z,86.29
2019-03-15T14:04:00.137Z,85.77
2019-03-15T14:06:31.499Z,85.59
2019-03-15T14:09:03.023Z,86.15
2019-03-15T14:11:34.380Z,86.25
2019-03-15T14:14:05.702Z,84.93
2019-03-15T14:16:37.081Z,84.49
2019-03-15T14:19:08.428Z,84.69
2019-03-15T14:21:40.152Z,84.84
2019-03-15T14:24:11.489Z,84.63
2019-03-15T14:26:42.805Z,85.13
2019-03-15T14:29:14.167Z,85.37
2019-03-15T14:31:45.845Z,85.61
2019-03-15T14:34:17.188Z,85.73
2019-03-15T14:36:49.626Z,86.22
2019-03-15T14:39:22.117Z,86.34
2019-03-15T14:41:56.380Z,86.48
2019-03-15T14:44:27.700Z,86.79
2019-03-15T14:46:59.293Z,86.72
2019-03-15T14:49:30.600Z,87.33
2019-03-15T14:52:02.073Z,87.48
2019-03-15T14:54:33.503Z,88.35
2019-03-15T14:57:05.699Z,89.82
2019-03-15T14:59:37.029Z,90.93
2019-03-15T15:02:08.604Z,91.76
2019-03-15T15:04:39.945Z,92.17
2019-03-15T15:07:11.296Z,91.62
2019-03-15T15:09:42.619Z,91.84
2019-03-15T15:12:14.051Z,91.07
2019-03-15T15:14:45.346Z,90.37
2019-03-15T15:17:16.715Z,89.46
2019-03-15T15:19:48.076Z,89.78
2019-03-15T15:22:19.876Z,89.69
2019-03-15T15:24:52.050Z,88.81
2019-03-15T15:27:25.628Z,88.37
2019-03-15T15:29:56.531Z,88.58
2019-03-15T15:32:27.845Z,88.06
2019-03-15T15:34:59.169Z,87.87
2019-03-15T15:37:30.496Z,87.26
2019-03-15T15:40:01.824Z,87.22
2019-03-15T15:42:33.147Z,86.95
2019-03-15T15:45:04.635Z,88.21
2019-03-15T15:47:36.418Z,87.36
2019-03-15T15:50:08.031Z,87.66
2019-03-15T15:52:39.770Z,88.00
2019-03-15T15:55:11.378Z,87.75
2019-03-15T15:57:43.822Z,88.07
2019-03-15T16:00:16.983Z,88.23
2019-03-15T16:02:48.334Z,88.56
2019-03-15T16:05:19.618Z,88.41
2019-03-15T16:07:51.292Z,89.61
2019-03-15T16:10:22.621Z,90.39
2019-03-15T16:12:53.888Z,91.12
2019-03-15T16:15:25.243Z,92.54
2019-03-15T16:17:56.572Z,94.65
2019-03-15T16:20:27.891Z,96.31
2019-03-15T16:22:59.231Z,97.63
2019-03-15T16:25:30.571Z,99.04
2019-03-15T16:28:01.934Z,100.00
2019-03-15T16:30:33.262Z,100.00
2019-03-15T16:33:04.608Z,100.00
2019-03-15T16:35:37.512Z,100.00
2019-03-15T16:38:08.866Z,100.00
2019-03-15T16:40:41.471Z,100.00
2019-03-15T16:43:14.873Z,100.00
2019-03-15T16:45:46.762Z,100.00
2019-03-15T16:48:20.412Z,100.00
2019-03-15T16:50:53.110Z,100.00
2019-03-15T16:53:32.322Z,100.00
2019-03-15T16:56:06.596Z,100.00
2019-03-15T16:58:45.480Z,100.00
2019-03-15T17:01:16.535Z,100.00
2019-03-15T17:03:53.555Z,100.00
2019-03-15T17:06:29.076Z,100.00
2019-03-15T17:09:00.435Z,100.00
2019-03-15T17:11:33.091Z,100.00
2019-03-15T17:14:05.574Z,100.00
2019-03-15T17:16:36.941Z,100.00
2019-03-15T17:19:08.312Z,100.00
2019-03-15T17:21:39.990Z,100.00
2019-03-15T17:24:12.172Z,100.00
2019-03-15T17:26:43.624Z,100.00
2019-03-15T17:29:17.761Z,100.00
2019-03-15T17:31:51.611Z,100.00
2019-03-15T17:34:29.629Z,100.00
2019-03-15T17:37:06.775Z,100.00
2019-03-15T17:39:35.744Z,95.83
2019-03-15T17:42:09.954Z,93.96
2019-03-15T17:44:41.480Z,93.47
2019-03-15T17:47:13.112Z,93.42
2019-03-15T17:49:46.588Z,92.37
2019-03-15T17:52:17.951Z,91.67
2019-03-15T17:54:50.118Z,90.97
2019-03-15T17:57:22.338Z,90.48
2019-03-15T18:00:38.492Z,89.69
2019-03-15T18:03:20.504Z,89.23
2019-03-15T18:05:43.489Z,87.56
2019-03-15T18:08:14.825Z,88.96
2019-03-15T18:10:46.141Z,88.75
2019-03-15T18:13:17.484Z,87.80
2019-03-15T18:15:48.820Z,87.87
2019-03-15T18:18:20.142Z,88.02
2019-03-15T18:20:51.472Z,88.24
2019-03-15T18:23:22.867Z,88.13
2019-03-15T18:25:54.190Z,88.74
2019-03-15T18:28:26.747Z,89.66
2019-03-15T18:30:59.381Z,89.50
2019-03-15T18:33:30.823Z,89.97
2019-03-15T18:36:02.157Z,89.88
2019-03-15T18:38:33.490Z,90.32
2019-03-15T18:41:04.942Z,90.55
2019-03-15T18:43:36.258Z,90.15
2019-03-15T18:46:07.516Z,89.80
2019-03-15T18:48:38.850Z,90.71
2019-03-15T18:51:10.124Z,90.99
2019-03-15T18:53:41.414Z,90.52
2019-03-15T18:56:12.670Z,90.08
2019-03-15T18:58:43.989Z,90.51
2019-03-15T19:01:15.301Z,90.73
2019-03-15T19:03:46.582Z,91.00
2019-03-15T19:06:17.939Z,90.06
2019-03-15T19:08:49.243Z,89.27
2019-03-15T19:11:20.601Z,89.49
2019-03-15T19:13:51.968Z,89.65
2019-03-15T19:16:23.240Z,89.92
2019-03-15T19:18:54.565Z,89.62
2019-03-15T19:21:25.911Z,89.58
2019-03-15T19:23:57.278Z,89.85
2019-03-15T19:26:29.116Z,89.68
2019-03-15T19:29:00.585Z,88.83
2019-03-15T19:31:31.940Z,88.66
2019-03-15T19:34:03.329Z,88.37
2019-03-15T19:36:34.686Z,88.68
2019-03-15T19:39:07.325Z,88.81
2019-03-15T19:41:38.699Z,88.95
2019-03-15T19:44:10.025Z,88.84
2019-03-15T19:46:41.348Z,89.00
2019-03-15T19:49:12.670Z,88.81
2019-03-15T19:51:43.985Z,88.56
2019-03-15T19:54:15.352Z,88.76
2019-03-15T19:56:46.680Z,88.13
2019-03-15T19:59:18.008Z,88.06
2019-03-15T20:01:49.350Z,88.61
2019-03-15T20:04:20.721Z,88.22
2019-03-15T20:06:52.050Z,88.68
2019-03-15T20:09:23.441Z,88.11
2019-03-15T20:11:54.740Z,88.16
2019-03-15T20:14:26.144Z,88.28
2019-03-15T20:16:57.494Z,88.29
2019-03-15T20:19:28.842Z,87.49
2019-03-15T20:22:00.139Z,87.47
2019-03-15T20:24:31.508Z,87.76
2019-03-15T20:27:02.875Z,87.20
2019-03-15T20:29:34.303Z,86.83
2019-03-15T20:32:05.662Z,86.63
2019-03-15T20:34:36.930Z,87.07
2019-03-15T20:37:08.326Z,87.30
2019-03-15T20:39:39.669Z,86.50
2019-03-15T20:42:11.049Z,86.20
2019-03-15T20:44:42.400Z,85.62
2019-03-15T20:47:13.701Z,85.17
2019-03-15T20:49:45.133Z,85.18
2019-03-15T20:52:16.539Z,85.14
2019-03-15T20:54:47.906Z,84.36
2019-03-15T20:57:19.227Z,84.44
2019-03-15T20:59:50.534Z,84.43
2019-03-15T21:02:21.824Z,83.22
2019-03-15T21:04:53.166Z,82.84
2019-03-15T21:07:24.533Z,83.09
2019-03-15T21:09:55.868Z,82.90
2019-03-15T21:12:27.278Z,82.45
2019-03-15T21:14:58.672Z,82.55
2019-03-15T21:17:29.975Z,82.10
2019-03-15T21:20:01.366Z,81.29
2019-03-15T21:22:32.724Z,80.98
2019-03-15T21:25:04.190Z,80.47
2019-03-15T21:27:35.562Z,80.11
2019-03-15T21:30:09.535Z,79.82
2019-03-15T21:32:40.873Z,78.64
2019-03-15T21:35:12.253Z,78.85
2019-03-15T21:37:43.579Z,78.89
2019-03-15T21:40:14.966Z,78.75
2019-03-15T21:42:46.311Z,78.49
2019-03-15T21:45:18.541Z,77.98
2019-03-15T21:47:49.853Z,77.41
2019-03-15T21:50:21.167Z,77.41
2019-03-15T21:52:52.651Z,77.93
2019-03-15T21:55:23.999Z,77.64
2019-03-15T21:57:55.270Z,78.35
2019-03-15T22:00:26.556Z,78.12
2019-03-15T22:02:57.877Z,78.43
2019-03-15T22:05:29.180Z,77.52
2019-03-15T22:08:00.505Z,77.47
2019-03-15T22:10:31.834Z,76.91
2019-03-15T22:13:03.134Z,76.16
2019-03-15T22:15:34.512Z,75.43
2019-03-15T22:18:05.868Z,74.99
2019-03-15T22:20:37.179Z,75.79
2019-03-15T22:23:08.562Z,75.52
2019-03-15T22:25:39.881Z,75.92
2019-03-15T22:28:11.210Z,74.92
2019-03-15T22:30:42.558Z,75.42
2019-03-15T22:33:13.902Z,75.04
2019-03-15T22:35:45.192Z,75.46
2019-03-15T22:38:26.124Z,75.47
2019-03-15T22:40:49.559Z,75.18
2019-03-15T22:43:20.830Z,75.09
2019-03-15T22:45:52.127Z,75.81
2019-03-15T22:48:23.446Z,75.22
2019-03-15T22:50:54.788Z,75.29
2019-03-15T22:53:26.188Z,75.35
2019-03-15T22:55:57.488Z,74.45
2019-03-15T22:58:28.777Z,75.05
2019-03-15T23:01:00.064Z,74.78
2019-03-15T23:03:31.502Z,74.81
2019-03-15T23:06:02.745Z,74.97
2019-03-15T23:08:34.086Z,75.08
2019-03-15T23:11:05.352Z,75.75
2019-03-15T23:13:36.685Z,75.71
2019-03-15T23:16:07.970Z,74.97
2019-03-15T23:18:39.236Z,75.30
2019-03-15T23:21:10.595Z,75.91
2019-03-15T23:23:41.929Z,74.79
2019-03-15T23:26:13.272Z,75.32
2019-03-15T23:28:47.147Z,75.52
2019-03-15T23:31:17.586Z,75.44
2019-03-15T23:33:56.461Z,75.99
2019-03-15T23:36:28.045Z,76.53
2019-03-15T23:38:59.496Z,76.66
2019-03-15T23:41:30.818Z,76.33
2019-03-15T23:44:02.175Z,76.15
2019-03-15T23:46:35.834Z,76.29
2019-03-15T23:49:07.165Z,76.31
2019-03-15T23:51:38.524Z,76.14
2019-03-15T23:54:09.882Z,76.52
2019-03-15T23:56:41.184Z,76.38
2019-03-15T23:59:12.563Z,76.84
